Flight Track Log - Related Links

Times and Time Zones

All times are in EDT time to prevent confusion due to time zone crossing. See the UAL4695 flight status page for this flight to view local times or setup timezone preferences in your user account.

Time Position Orientation Groundspeed Altitude Reporting Facility
EDT Latitude Longitude Course Direction KTS km/h meters Rate Location/Type
Sun 16:39:45 32.2067 -81.1542 North 254 470 1,859  Level Jacksonville Center
Sun 16:40:00 32.4112 -81.1653 North  Level FlightAware Approximate
Sun 16:40:45 32.2886 -81.1847 343° North 277 513 2,804  Level Jacksonville Center
Sun 16:41:00 32.5110 -81.1528 North  Level FlightAware Approximate
Sun 16:41:45 32.3617 -81.1808 North 277 513 3,414  Level Jacksonville Center
Sun 16:42:00 32.6113 -81.1500 North  Level FlightAware Approximate
Sun 16:42:45 32.4597 -81.1739 North 297 550 4,084  Level Jacksonville Center
Sun 16:43:00 32.7116 -81.1486 North  Level FlightAware Approximate
Sun 16:43:45 32.5431 -81.1675 North 333 616 4,633  Level Jacksonville Center
Sun 16:44:00 32.8115 -81.1361 North  Level FlightAware Approximate
Sun 16:44:45 32.6489 -81.1286 17° North 349 647 5,243  Level Jacksonville Center
Sun 16:45:45 32.7358 -81.0750 27° Northeast 371 687 5,517 381 Climbing Jacksonville Center
Sun 16:46:45 32.8353 -81.0211 24° Northeast 379 702 6,005 472 Climbing Jacksonville Center
Sun 16:47:45 32.9367 -80.9594 27° Northeast 384 711 6,462 472 Climbing Jacksonville Center
Sun 16:48:45 33.0422 -80.8953 27° Northeast 398 737 6,949 472 Climbing Jacksonville Center
Sun 16:49:45 33.1475 -80.8333 26° Northeast 411 761 7,407 457 Climbing Jacksonville Center
Sun 16:50:45 33.2572 -80.7686 26° Northeast 423 784 7,864 457 Climbing Jacksonville Center
Sun 16:51:45 33.3647 -80.7064 26° Northeast 423 784 8,321 396 Climbing Jacksonville Center
Sun 16:52:45 33.4742 -80.6392 27° Northeast 423 784 8,656 259 Climbing Jacksonville Center
Sun 16:53:45 33.5897 -80.5714 26° Northeast 434 803 8,839 91 Climbing Jacksonville Center
Sun 16:54:45 33.7175 -80.4931 27° Northeast 447 827 8,839  Level Jacksonville Center
Sun 16:55:45 33.8456 -80.4144 27° Northeast 480 888 8,839  Level Jacksonville Center
Sun 16:56:45 33.9733 -80.3358 27° Northeast 501 929 8,839  Level Jacksonville Center
Sun 16:57:45 34.1053 -80.2567 26° Northeast 506 937 8,839  Level Jacksonville Center
Sun 16:58:45 34.2328 -80.1800 26° Northeast 511 946 8,839  Level Jacksonville Center
Sun 16:59:45 34.3644 -80.0953 28° Northeast 511 946 8,839  Level Jacksonville Center
Sun 17:01:17 34.5586 -79.9775 27° Northeast 523 969 8,839 24 Level Washington Center
Sun 17:02:17 34.6828 -79.8956 28° Northeast 518 959 8,900 122 Climbing Washington Center
Sun 17:03:17 34.8139 -79.8419 19° North 498 922 9,083 122 Climbing Washington Center
Sun 17:04:17 34.9422 -79.8131 10° North 486 900 9,144 30 Climbing Washington Center
Sun 17:05:17 35.0744 -79.7922 North 469 869 9,144 122 Level Washington Center
Sun 17:06:17 35.1967 -79.7628 11° North 464 859 9,388 305 Climbing Washington Center
Sun 17:07:17 35.3117 -79.6900 27° Northeast 451 835 9,754 351 Climbing Washington Center
Sun 17:08:17 35.4211 -79.6014 33° Northeast 456 845 10,089 320 Climbing Washington Center
Sun 17:09:17 35.5328 -79.5125 33° Northeast 467 864 10,394 274 Climbing Washington Center
Sun 17:10:17 35.6356 -79.4256 35° Northeast 481 892 10,638 137 Climbing Washington Center
Sun 17:11:17 35.7619 -79.3267 32° Northeast 481 892 10,668 15 Climbing Washington Center
Sun 17:12:17 35.8756 -79.2294 35° Northeast 489 906 10,668  Level Washington Center
Sun 17:13:17 35.9953 -79.1322 33° Northeast 494 914 10,668  Level Washington Center
Sun 17:14:17 36.1128 -79.0347 34° Northeast 500 925 10,668  Level Washington Center
Sun 17:15:17 36.2175 -78.9467 34° Northeast 500 925 10,668  Level Washington Center
Sun 17:16:17 36.3350 -78.8486 34° Northeast 500 925 10,668  Level Washington Center
Sun 17:17:17 36.4503 -78.7525 34° Northeast 500 925 10,668 -30 Level Washington Center
Sun 17:18:17 36.5656 -78.6564 34° Northeast 500 925 10,607 -152 Descending Washington Center
Sun 17:19:17 36.6892 -78.5472 35° Northeast 500 925 10,363 -122 Descending Washington Center
Sun 17:20:17 36.7892 -78.4656 33° Northeast 489 906 10,363  Level Washington Center
Sun 17:21:17 36.9022 -78.3683 35° Northeast 484 896 10,363  Level Washington Center
Sun 17:22:17 36.9906 -78.2364 50° Northeast 484 896 10,363  Level Washington Center
Sun 17:23:17 37.0108 -78.0733 81° East 451 835 10,363  Level Washington Center
Sun 17:24:17 37.0267 -77.9047 83° East 451 835 10,363  Level Washington Center
Sun 17:25:17 37.0422 -77.7386 83° East 471 872 10,363  Level Washington Center
Sun 17:26:17 37.0597 -77.5750 82° East 476 882 10,363  Level Washington Center
Sun 17:27:17 37.1311 -77.4233 59° Northeast 476 882 10,363  Level Washington Center
Sun 17:28:17 37.2531 -77.3453 27° Northeast 450 834 10,363  Level Washington Center
Sun 17:29:17 37.3803 -77.3586 355° North 425 787 10,363  Level Washington Center
Sun 17:30:17 37.4942 -77.4136 339° North 401 742 10,363  Level Washington Center
Sun 17:31:17 37.6058 -77.4686 339° North 409 758 10,363  Level Washington Center
Sun 17:32:17 37.7175 -77.5267 338° Northwest 421 779 10,363  Level Washington Center
Sun 17:33:17 37.8381 -77.5533 350° North 427 790 10,363  Level Washington Center
Sun 17:34:17 37.9581 -77.4800 26° Northeast 432 800 10,363  Level Washington Center
Sun 17:35:17 38.0725 -77.3694 37° Northeast 440 814 10,363  Level Washington Center
Sun 17:36:17 38.1903 -77.3011 25° Northeast 454 840 10,363 -15 Level Washington Center
Sun 17:37:17 38.3111 -77.3169 354° North 436 808 10,333 -168 Descending Washington Center
Sun 17:38:17 38.4189 -77.3461 348° North 425 787 10,028 -290 Descending Washington Center
Sun 17:39:17 38.5386 -77.2931 19° North 438 811 9,754 -290 Descending Washington Center
Sun 17:40:17 38.6197 -77.1619 52° Northeast 422 782 9,449 -305 Descending Washington Center
Sun 17:41:17 38.6736 -77.0089 66° East 436 808 9,144 -274 Descending Washington Center
Sun 17:42:17 38.7294 -76.8531 65° Northeast 448 830 8,900 -259 Descending Washington Center
Sun 17:43:17 38.7833 -76.6914 67° East 466 863 8,626 -259 Descending Washington Center
Sun 17:44:17 38.8389 -76.5350 65° Northeast 478 885 8,382 -198 Descending Washington Center
Sun 17:45:17 38.9375 -76.4242 41° Northeast 461 855 8,230 -76 Descending Washington Center
Sun 17:46:17 39.0628 -76.4042 North 442 819 8,230  Level Washington Center
Sun 17:48:17 39.2656 -76.3047 21° North 404 748 8,230  Level Washington Center
Sun 17:49:17 39.2811 -76.1358 83° East 379 702 8,230  Level Washington Center
Sun 17:50:17 39.3525 -75.9942 57° Northeast 428 793 8,230  Level Washington Center
Sun 17:51:17 39.4486 -75.8819 42° Northeast 447 827 8,230 -107 Level Washington Center
Sun 17:52:17 39.5447 -75.7664 43° Northeast 452 837 8,016 -488 Descending Washington Center
Sun 17:53:17 39.6386 -75.6589 41° Northeast 462 856 7,254 -777 Descending Washington Center
Sun 17:54:17 39.7261 -75.5511 43° Northeast 449 832 6,462 -777 Descending Washington Center
Sun 17:55:17 39.8114 -75.4483 43° Northeast 431 798 5,700 -625 Descending Washington Center
Sun 17:56:17 39.8986 -75.3428 43° Northeast 405 750 5,212 -625 Descending Washington Center
Sun 17:57:17 39.9714 -75.2558 42° Northeast 380 703 4,450 -732 Descending Washington Center
Sun 17:58:17 40.0442 -75.1661 43° Northeast 361 668 3,749 -549 Descending Washington Center
Sun 17:59:17 40.1103 -75.0869 42° Northeast 341 631 3,353 -335 Descending Washington Center
Sun 18:00:17 40.1725 -75.0106 43° Northeast 327 605 3,078 -384 Descending Washington Center
Sun 18:00:57 40.2167 -74.9667 37° Northeast 283 525 2,713 -384 Descending New York TRACON
Sun 18:01:57 40.2667 -74.8833 52° Northeast 268 496 2,438 -160 Descending New York TRACON
Sun 18:03:03 40.3167 -74.8167 45° Northeast 235 435 2,377 -218 Descending New York TRACON
Sun 18:04:03 40.3500 -74.7667 49° Northeast 217 402 1,981 -353 Descending New York TRACON
Sun 18:04:57 40.4000 -74.7167 37° Northeast 220 407 1,707 -225 Descending New York TRACON
Sun 18:05:57 40.4167 -74.6333 75° East 226 418 1,554 -76 Descending New York TRACON
Sun 18:06:57 40.4000 -74.5667 108° East 220 407 1,554 -152 Level New York TRACON
Sun 18:07:57 40.3833 -74.4833 105° East 221 409 1,250 -168 Descending New York TRACON
Sun 18:08:57 40.4000 -74.4167 72° East 197 365 1,219 -15 Descending New York TRACON
Sun 18:09:57 40.4167 -74.3500 72° East 185 343 1,219 -76 Level New York TRACON
Sun 18:10:57 40.4500 -74.3167 37° Northeast 170 315 1,067 -137 Descending New York TRACON
Sun 18:11:57 40.5000 -74.2833 27° Northeast 169 312 945 -73 Descending New York TRACON
Sun 18:13:03 40.5500 -74.2667 14° North 166 307 914 -107 Descending New York TRACON
Sun 18:13:57 40.5833 -74.2333 37° Northeast 166 307 732 -240 Descending New York TRACON
Sun 18:14:57 40.6167 -74.2167 21° North 148 274 457 -261 Descending New York TRACON
Sun 18:16:03 40.6500 -74.1833 37° Northeast 131 243 183 -249 Descending New York TRACON

Login

Don't have an account? Register now (free) for customized features, flight alerts, and more!